Terminal Aerodrome Forecast
Issued by NWS Duluth, MN

Home | Current Version | Previous Version | Text Only | Print | Product List | Glossary On
Versions: 1 2 3 4 5 6 7 8 9 10 11 12 13 14 15 16 17 18 19 20 21 22
000
FTUS43 KDLH 161000 AAA
TAFDLH
TAF AMD
KDLH 161012Z 1610/1706 09008KT P6SM OVC080
     FM161200 09012KT P6SM -SN OVC040
     FM161400 08014G21KT 5SM -SN OVC020
     FM161600 08016G25KT 1 1/2SM -SN BKN007 OVC015
     FM161900 07019G30KT 1/4SM +SN VV004
     FM170300 04019G30KT 1 1/2SM -SN OVC006=

USA.gov is the U.S. government's official web portal to all federal, state and local government web resources and services.